Time;durP1;ratioP1;P1;durP2;ratioP2;P2;SDS_P1;SDS_P2;PMS_P1;PMS_P2;Temp;Humidity;BMP_temperature;BMP_pressure;BME280_temperature;BME280_humidity;BME280_pressure;Samples;Min_cycle;Max_cycle;Signal;HPM_P1;HPM_P2
2022/02/27 00:01:58;;;;;;;49.65;25.05;;;-0.90;99.90;;;;;;5113221;28;20080;-73
2022/02/27 00:04:25;;;;;;;51.25;24.88;;;-0.90;99.90;;;;;;5114352;28;20026;-72
2022/02/27 00:06:51;;;;;;;51.97;24.90;;;-0.80;99.90;;;;;;5114133;28;20107;-72
2022/02/27 00:09:17;;;;;;;47.90;25.10;;;-0.80;99.90;;;;;;5114009;28;20118;-72
2022/02/27 00:11:42;;;;;;;51.95;27.02;;;-0.70;99.90;;;;;;5112971;28;20023;-73
2022/02/27 00:14:08;;;;;;;54.42;26.73;;;-0.70;99.90;;;;;;5114148;28;20080;-72
2022/02/27 00:16:33;;;;;;;51.00;25.15;;;-0.70;99.90;;;;;;5104006;28;20381;-72
2022/02/27 00:19:00;;;;;;;50.20;25.88;;;-0.70;99.90;;;;;;5092433;28;20102;-72
2022/02/27 00:21:25;;;;;;;53.33;26.42;;;-0.70;99.90;;;;;;5093632;28;20031;-72
2022/02/27 00:23:51;;;;;;;53.80;25.83;;;-0.60;99.90;;;;;;5093651;28;20024;-72
2022/02/27 00:26:16;;;;;;;49.70;23.13;;;-0.60;99.90;;;;;;5093428;28;20020;-73
2022/02/27 00:28:42;;;;;;;52.42;24.98;;;-0.60;99.90;;;;;;5093532;28;20031;-72
2022/02/27 00:31:08;;;;;;;56.78;25.83;;;-0.60;99.90;;;;;;5093490;28;20035;-72
2022/02/27 00:33:34;;;;;;;51.20;25.48;;;-0.50;99.90;;;;;;5093402;28;20024;-73
2022/02/27 00:35:59;;;;;;;43.15;20.75;;;-0.50;99.90;;;;;;5093319;28;20115;-73
2022/02/27 00:38:25;;;;;;;49.75;25.08;;;-0.50;99.90;;;;;;5092842;28;20024;-73
2022/02/27 00:40:51;;;;;;;51.30;26.35;;;-0.50;99.90;;;;;;5102612;28;20072;-73
2022/02/27 00:43:16;;;;;;;51.17;25.45;;;-0.50;99.90;;;;;;5111182;28;20072;-72
2022/02/27 00:45:42;;;;;;;54.72;25.42;;;-0.50;99.90;;;;;;5112103;28;20016;-71
2022/02/27 00:48:07;;;;;;;53.72;27.45;;;-0.50;99.90;;;;;;5113282;28;20051;-70
2022/02/27 00:50:33;;;;;;;52.30;25.00;;;-0.50;99.90;;;;;;5112497;28;20028;-69
2022/02/27 00:52:59;;;;;;;53.58;26.42;;;-0.50;99.90;;;;;;5113636;28;20027;-70
2022/02/27 00:55:24;;;;;;;51.92;26.52;;;-0.50;99.90;;;;;;5113429;28;20085;-72
2022/02/27 00:57:50;;;;;;;46.85;23.80;;;-0.50;99.90;;;;;;5112449;28;20030;-70
2022/02/27 01:00:16;;;;;;;55.83;26.30;;;-0.50;99.90;;;;;;5113652;28;20069;-70
2022/02/27 01:02:41;;;;;;;52.80;23.38;;;-0.50;99.90;;;;;;5113639;28;20020;-72
2022/02/27 01:05:07;;;;;;;51.65;25.45;;;-0.60;99.90;;;;;;5110418;28;20027;-69
2022/02/27 01:07:33;;;;;;;43.47;21.92;;;-0.60;99.90;;;;;;5113653;28;20038;-70
2022/02/27 01:09:59;;;;;;;47.03;28.30;;;-0.60;99.90;;;;;;5113407;28;20032;-71
2022/02/27 01:12:24;;;;;;;63.20;28.33;;;-0.60;99.90;;;;;;5112189;28;20067;-70
2022/02/27 01:14:50;;;;;;;47.42;25.15;;;-0.60;99.90;;;;;;5113250;28;20031;-72
2022/02/27 01:17:16;;;;;;;58.50;26.83;;;-0.60;99.90;;;;;;5113584;28;20030;-71
2022/02/27 01:19:42;;;;;;;55.92;29.52;;;-0.70;99.90;;;;;;5113398;28;20050;-72
2022/02/27 01:22:08;;;;;;;57.22;28.73;;;-0.70;99.90;;;;;;5113371;28;20019;-70
2022/02/27 01:24:34;;;;;;;62.20;29.27;;;-0.70;99.90;;;;;;5113221;28;20023;-70
2022/02/27 01:26:59;;;;;;;58.53;30.08;;;-0.70;99.90;;;;;;5113475;28;20023;-71
2022/02/27 01:29:25;;;;;;;56.83;28.88;;;-0.70;99.90;;;;;;5113326;28;20473;-71
2022/02/27 01:31:50;;;;;;;65.50;28.27;;;-0.80;99.90;;;;;;5112242;28;20416;-71
2022/02/27 01:34:16;;;;;;;50.17;27.33;;;-0.80;99.90;;;;;;5113068;28;20481;-71
2022/02/27 01:36:42;;;;;;;56.58;24.42;;;-0.80;99.90;;;;;;5113315;28;20023;-72
2022/02/27 01:39:07;;;;;;;47.72;24.15;;;-0.80;99.90;;;;;;5112026;28;20023;-71
2022/02/27 01:41:34;;;;;;;57.95;29.90;;;-0.90;99.90;;;;;;5113410;28;20517;-70
2022/02/27 01:43:59;;;;;;;65.75;32.13;;;-0.90;99.90;;;;;;5113110;28;20372;-71
2022/02/27 01:46:25;;;;;;;58.55;28.85;;;-0.90;99.90;;;;;;5113083;28;20107;-72
2022/02/27 01:48:50;;;;;;;66.93;29.77;;;-0.90;99.90;;;;;;5114306;28;20043;-70
2022/02/27 01:51:16;;;;;;;60.05;29.25;;;-0.90;99.90;;;;;;5117146;28;20036;-71
2022/02/27 01:53:42;;;;;;;65.30;30.63;;;-1.00;99.90;;;;;;5117053;28;20031;-72
2022/02/27 01:56:07;;;;;;;74.97;31.42;;;-1.00;99.90;;;;;;5116709;28;20020;-71
2022/02/27 01:58:33;;;;;;;68.85;30.45;;;-1.00;99.90;;;;;;5117029;28;20027;-70
2022/02/27 02:01:00;;;;;;;59.78;24.52;;;-1.10;99.90;;;;;;5116985;28;20133;-71
2022/02/27 02:03:27;;;;;;;68.70;33.50;;;-1.10;99.90;;;;;;5115607;28;20053;-70
2022/02/27 02:05:53;;;;;;;57.47;26.98;;;-1.10;99.90;;;;;;5116701;28;20011;-71
2022/02/27 02:08:19;;;;;;;63.95;28.60;;;-1.10;99.90;;;;;;5116788;28;20384;-70
2022/02/27 02:10:44;;;;;;;67.28;31.20;;;-1.00;99.90;;;;;;5116675;28;20032;-71
2022/02/27 02:13:11;;;;;;;66.95;32.15;;;-1.10;99.90;;;;;;5116742;28;20019;-71
2022/02/27 02:15:37;;;;;;;66.13;28.98;;;-1.10;99.90;;;;;;5116609;28;20068;-71
2022/02/27 02:18:07;;;;;;;63.30;29.25;;;-1.10;99.90;;;;;;5115218;28;20035;-71
2022/02/27 02:20:32;;;;;;;69.40;31.13;;;-1.00;99.90;;;;;;5115286;28;20427;-70
2022/02/27 02:22:58;;;;;;;63.72;29.52;;;-1.00;99.90;;;;;;5115248;28;20016;-71
2022/02/27 02:25:24;;;;;;;62.45;30.23;;;-1.00;99.90;;;;;;5116433;28;20027;-71
2022/02/27 02:27:49;;;;;;;69.38;31.45;;;-1.10;99.90;;;;;;5116458;28;20120;-70
2022/02/27 02:30:15;;;;;;;56.88;26.77;;;-1.10;99.90;;;;;;5116220;28;20500;-71
2022/02/27 02:32:46;;;;;;;69.30;31.15;;;-1.10;99.90;;;;;;5116330;28;20030;-70
2022/02/27 02:35:12;;;;;;;62.92;30.90;;;-1.10;99.90;;;;;;5116191;28;20030;-72
2022/02/27 02:37:38;;;;;;;76.05;31.92;;;-1.10;99.90;;;;;;5116166;28;20114;-70
2022/02/27 02:40:05;;;;;;;68.50;31.17;;;-1.20;99.90;;;;;;5116044;28;20030;-72
2022/02/27 02:42:30;;;;;;;67.63;31.00;;;-1.20;99.90;;;;;;5115996;28;20084;-71
2022/02/27 02:44:56;;;;;;;64.65;30.00;;;-1.20;99.90;;;;;;5115894;28;20048;-70
2022/02/27 02:47:21;;;;;;;63.10;32.35;;;-1.30;99.90;;;;;;5115936;28;20397;-70
2022/02/27 02:49:47;;;;;;;69.60;31.55;;;-1.30;99.90;;;;;;5115986;28;20055;-72
2022/02/27 02:52:15;;;;;;;70.35;32.60;;;-1.30;99.90;;;;;;5114504;28;20384;-72
2022/02/27 02:54:41;;;;;;;55.53;24.88;;;-1.30;99.90;;;;;;5114318;28;20019;-70
2022/02/27 02:57:07;;;;;;;50.25;23.42;;;-1.30;99.90;;;;;;5114620;28;20028;-71
2022/02/27 02:59:32;;;;;;;66.60;30.27;;;-1.40;99.90;;;;;;5115892;28;20530;-70
2022/02/27 03:01:58;;;;;;;72.65;32.08;;;-1.40;99.90;;;;;;5115003;28;20419;-72
2022/02/27 03:04:23;;;;;;;61.10;28.92;;;-1.40;99.90;;;;;;5114293;28;20023;-71
2022/02/27 03:06:49;;;;;;;66.43;33.08;;;-1.40;99.90;;;;;;5114442;28;20024;-71
2022/02/27 03:09:14;;;;;;;70.68;33.30;;;-1.40;99.90;;;;;;5115586;28;20485;-70
2022/02/27 03:11:40;;;;;;;68.88;32.05;;;-1.40;99.90;;;;;;5114285;28;20027;-70
2022/02/27 03:14:06;;;;;;;66.72;31.05;;;-1.40;99.90;;;;;;5115163;28;20465;-71
2022/02/27 03:16:31;;;;;;;73.13;32.78;;;-1.40;99.90;;;;;;5115501;28;20537;-71
2022/02/27 03:18:57;;;;;;;69.18;31.52;;;-1.40;99.90;;;;;;5115453;28;20032;-71
2022/02/27 03:21:23;;;;;;;74.40;35.33;;;-1.50;99.90;;;;;;5115488;28;20106;-72
2022/02/27 03:23:52;;;;;;;65.22;32.03;;;-1.50;99.90;;;;;;5115476;28;20068;-71
2022/02/27 03:26:18;;;;;;;71.63;33.10;;;-1.50;99.90;;;;;;5114872;28;20423;-72
2022/02/27 03:28:44;;;;;;;71.43;33.05;;;-1.50;99.90;;;;;;5115197;28;20020;-70
2022/02/27 03:31:09;;;;;;;67.85;31.83;;;-1.50;99.90;;;;;;5115094;28;20035;-72
2022/02/27 03:33:35;;;;;;;68.07;31.38;;;-1.50;99.90;;;;;;5113860;28;20084;-70
2022/02/27 03:36:01;;;;;;;71.72;32.40;;;-1.50;99.90;;;;;;5114734;28;20027;-70
2022/02/27 03:38:26;;;;;;;72.85;34.40;;;-1.60;99.90;;;;;;5115042;28;20035;-72
2022/02/27 03:40:53;;;;;;;71.07;35.55;;;-1.60;99.90;;;;;;5115064;28;20116;-72
2022/02/27 03:43:18;;;;;;;71.78;31.80;;;-1.50;99.90;;;;;;5113611;28;20020;-72
2022/02/27 03:45:44;;;;;;;74.55;34.30;;;-1.50;99.90;;;;;;5114755;28;20098;-71
2022/02/27 03:48:09;;;;;;;73.88;34.33;;;-1.50;99.90;;;;;;5114467;28;20104;-70
2022/02/27 03:50:35;;;;;;;71.53;33.45;;;-1.50;99.90;;;;;;5114731;28;20027;-70
2022/02/27 03:53:00;;;;;;;70.43;34.80;;;-1.50;99.90;;;;;;5114671;28;20024;-70
2022/02/27 03:55:26;;;;;;;73.88;36.55;;;-1.60;99.90;;;;;;5114473;28;20026;-72
2022/02/27 03:57:52;;;;;;;77.68;34.63;;;-1.60;99.90;;;;;;5113257;28;20023;-69
2022/02/27 04:00:18;;;;;;;68.35;31.10;;;-1.60;99.90;;;;;;5114435;28;20497;-71
2022/02/27 04:02:45;;;;;;;73.13;32.67;;;-1.60;99.90;;;;;;5114599;28;20019;-71
2022/02/27 04:05:11;;;;;;;72.80;31.83;;;-1.60;99.90;;;;;;5114233;28;20020;-69
2022/02/27 04:07:37;;;;;;;61.88;31.02;;;-1.60;99.90;;;;;;5114410;28;20031;-70
2022/02/27 04:10:03;;;;;;;68.18;31.38;;;-1.70;99.90;;;;;;5114261;28;20031;-72
2022/02/27 04:12:28;;;;;;;73.20;33.80;;;-1.70;99.90;;;;;;5114351;27;20035;-70
2022/02/27 04:14:54;;;;;;;72.65;33.13;;;-1.70;99.90;;;;;;5114160;28;20427;-71
2022/02/27 04:17:19;;;;;;;71.05;32.15;;;-1.80;99.90;;;;;;5114250;28;20056;-70
2022/02/27 04:19:45;;;;;;;68.60;32.72;;;-1.80;99.90;;;;;;5114233;28;20031;-72
2022/02/27 04:22:11;;;;;;;71.25;33.17;;;-1.80;99.90;;;;;;5114044;28;20024;-70
2022/02/27 04:24:36;;;;;;;69.72;29.60;;;-1.80;99.90;;;;;;5113918;28;20024;-71
2022/02/27 04:27:02;;;;;;;62.05;29.05;;;-1.90;99.90;;;;;;5114118;28;20385;-71
2022/02/27 04:29:27;;;;;;;67.68;33.95;;;-1.90;99.90;;;;;;5112639;28;20519;-71
2022/02/27 04:31:53;;;;;;;65.85;30.20;;;-1.90;99.90;;;;;;5113914;28;20024;-71
2022/02/27 04:34:19;;;;;;;66.95;29.65;;;-2.00;99.90;;;;;;5113703;28;20061;-70
2022/02/27 04:36:44;;;;;;;59.95;30.05;;;-2.00;99.90;;;;;;5112680;28;20541;-70
2022/02/27 04:39:10;;;;;;;65.55;30.27;;;-2.00;99.90;;;;;;5113830;28;20504;-71
2022/02/27 04:41:36;;;;;;;62.47;28.20;;;-2.00;99.90;;;;;;5112309;28;20019;-70
2022/02/27 04:44:01;;;;;;;56.95;27.00;;;-2.00;99.90;;;;;;5113488;28;20015;-69
2022/02/27 04:46:27;;;;;;;57.30;27.77;;;-2.10;99.90;;;;;;5113794;28;20042;-71
2022/02/27 04:48:52;;;;;;;56.58;28.65;;;-2.10;99.90;;;;;;5112183;28;20051;-72
2022/02/27 04:51:19;;;;;;;58.88;27.10;;;-2.20;99.90;;;;;;5112650;28;20058;-70
2022/02/27 04:53:47;;;;;;;47.58;24.48;;;-2.20;99.90;;;;;;5113830;28;20094;-70
2022/02/27 04:56:12;;;;;;;55.63;27.00;;;-2.20;99.90;;;;;;5113390;28;20020;-71
2022/02/27 04:58:38;;;;;;;52.10;24.73;;;-2.30;99.90;;;;;;5113641;28;20027;-69
2022/02/27 05:01:03;;;;;;;47.88;23.77;;;-2.30;99.90;;;;;;5113606;28;20068;-71
2022/02/27 05:03:29;;;;;;;42.85;21.88;;;-2.30;99.90;;;;;;5113620;28;20504;-70
2022/02/27 05:05:55;;;;;;;48.05;23.67;;;-2.40;99.90;;;;;;5113366;28;20099;-70
2022/02/27 05:08:20;;;;;;;51.95;24.55;;;-2.40;99.90;;;;;;5113408;28;20024;-71
2022/02/27 05:10:46;;;;;;;44.40;22.33;;;-2.50;99.90;;;;;;5112123;28;20473;-72
2022/02/27 05:13:11;;;;;;;42.75;20.23;;;-2.50;99.90;;;;;;5113493;28;20036;-70
2022/02/27 05:15:37;;;;;;;54.20;24.02;;;-2.50;99.90;;;;;;5113341;28;20024;-71
2022/02/27 05:18:02;;;;;;;51.33;23.95;;;-2.50;99.90;;;;;;5111988;28;20023;-70
2022/02/27 05:20:28;;;;;;;41.65;20.65;;;-2.50;99.90;;;;;;5113492;28;20026;-72
2022/02/27 05:22:54;;;;;;;44.50;22.42;;;-2.50;99.90;;;;;;5113432;28;20028;-71
2022/02/27 05:25:22;;;;;;;38.30;20.52;;;-2.50;99.90;;;;;;5117039;28;20480;-71
2022/02/27 05:27:50;;;;;;;44.22;21.75;;;-2.60;99.90;;;;;;5117509;28;20030;-71
2022/02/27 05:30:16;;;;;;;42.95;20.27;;;-2.50;99.90;;;;;;5117357;28;20045;-72
2022/02/27 05:32:42;;;;;;;42.55;20.20;;;-2.60;99.90;;;;;;5116215;28;20012;-71
2022/02/27 05:35:08;;;;;;;38.03;20.23;;;-2.60;99.90;;;;;;5115950;28;20498;-70
2022/02/27 05:37:34;;;;;;;43.53;19.45;;;-2.60;99.90;;;;;;5117462;28;20015;-69
2022/02/27 05:40:00;;;;;;;43.50;21.50;;;-2.60;99.90;;;;;;5115905;28;20488;-71
2022/02/27 05:42:26;;;;;;;47.88;21.45;;;-2.60;99.90;;;;;;5117225;28;20015;-70
2022/02/27 05:44:51;;;;;;;44.30;22.40;;;-2.60;99.90;;;;;;5117157;28;20028;-70
2022/02/27 05:47:17;;;;;;;45.65;23.95;;;-2.60;99.90;;;;;;5117132;28;20036;-71
2022/02/27 05:49:43;;;;;;;48.92;23.52;;;-2.60;99.90;;;;;;5117072;28;20052;-71
2022/02/27 05:52:09;;;;;;;54.45;27.40;;;-2.50;99.90;;;;;;5116954;27;20480;-72
2022/02/27 05:54:34;;;;;;;64.35;30.27;;;-2.50;99.90;;;;;;5116895;28;20090;-69
2022/02/27 05:57:00;;;;;;;59.00;29.55;;;-2.40;99.90;;;;;;5117069;27;20381;-69
2022/02/27 05:59:25;;;;;;;63.20;31.08;;;-2.40;99.90;;;;;;5116938;28;20484;-70
2022/02/27 06:01:51;;;;;;;68.90;32.75;;;-2.30;99.90;;;;;;5116855;28;20055;-70
2022/02/27 06:04:17;;;;;;;69.93;31.77;;;-2.30;99.90;;;;;;5116506;28;20020;-71
2022/02/27 06:06:43;;;;;;;61.60;30.55;;;-2.20;99.90;;;;;;5116969;28;20020;-72
2022/02/27 06:09:09;;;;;;;66.75;30.90;;;-2.10;99.90;;;;;;5115331;28;20016;-69
2022/02/27 06:11:35;;;;;;;69.03;31.08;;;-2.00;99.90;;;;;;5116730;28;20027;-72
2022/02/27 06:14:01;;;;;;;61.47;28.95;;;-1.90;99.90;;;;;;5115041;28;20020;-71
2022/02/27 06:16:27;;;;;;;62.95;29.38;;;-1.80;99.90;;;;;;5116629;27;20114;-71
2022/02/27 06:18:53;;;;;;;57.15;28.27;;;-1.80;99.90;;;;;;5116529;28;20121;-72
2022/02/27 06:21:19;;;;;;;59.53;27.48;;;-1.70;99.90;;;;;;5115274;28;20016;-72
2022/02/27 06:23:44;;;;;;;54.88;29.00;;;-1.60;99.90;;;;;;5116430;28;20095;-71
2022/02/27 06:26:10;;;;;;;52.33;26.38;;;-1.50;99.90;;;;;;5114873;28;20030;-71
2022/02/27 06:28:35;;;;;;;54.35;27.45;;;-1.50;99.90;;;;;;5116480;28;20023;-70
2022/02/27 06:31:01;;;;;;;56.45;28.85;;;-1.40;99.90;;;;;;5116254;28;20481;-72
2022/02/27 06:33:27;;;;;;;65.90;31.35;;;-1.30;99.90;;;;;;5115044;28;20039;-71
2022/02/27 06:35:52;;;;;;;63.40;30.08;;;-1.20;99.90;;;;;;5114751;28;20070;-71
2022/02/27 06:38:18;;;;;;;63.88;30.27;;;-1.20;99.90;;;;;;5116068;27;20484;-70
2022/02/27 06:40:43;;;;;;;54.53;28.33;;;-1.00;99.90;;;;;;5116178;28;20106;-72
2022/02/27 06:43:09;;;;;;;49.13;27.13;;;-0.90;99.90;;;;;;5114797;28;20530;-70
2022/02/27 06:45:35;;;;;;;59.13;29.63;;;-0.80;99.90;;;;;;5115831;28;20073;-71
2022/02/27 06:48:00;;;;;;;49.05;24.55;;;-0.80;99.90;;;;;;5115721;28;20047;-72
2022/02/27 06:50:26;;;;;;;53.20;25.55;;;-0.80;99.90;;;;;;5114567;28;20126;-69
2022/02/27 06:52:52;;;;;;;52.10;25.63;;;-0.70;99.90;;;;;;5115909;28;20020;-71
2022/02/27 06:55:19;;;;;;;53.42;27.40;;;-0.70;99.90;;;;;;5114354;28;20054;-71
2022/02/27 06:57:45;;;;;;;52.65;25.75;;;-0.60;99.90;;;;;;5114463;28;20469;-71
2022/02/27 07:00:12;;;;;;;48.72;26.30;;;-0.50;99.90;;;;;;5114469;28;20027;-70
2022/02/27 07:02:39;;;;;;;47.08;25.55;;;-0.40;99.90;;;;;;5115752;28;20034;-70
2022/02/27 07:05:05;;;;;;;55.33;26.45;;;-0.30;99.90;;;;;;5115524;28;20024;-71
2022/02/27 07:07:30;;;;;;;66.22;31.90;;;-0.20;99.90;;;;;;5114256;28;20020;-70
2022/02/27 07:10:00;;;;;;;59.92;30.05;;;0.00;99.90;;;;;;5115431;28;20435;-71
2022/02/27 07:12:29;;;;;;;48.80;26.08;;;0.10;99.90;;;;;;5114284;28;20072;-69
2022/02/27 07:14:55;;;;;;;54.40;28.20;;;0.20;99.90;;;;;;5115284;28;20047;-72
2022/02/27 07:17:21;;;;;;;47.88;25.58;;;0.30;99.90;;;;;;5114165;28;20032;-71
2022/02/27 07:19:46;;;;;;;49.22;25.90;;;0.40;99.90;;;;;;5115442;28;20219;-72
2022/02/27 07:22:13;;;;;;;50.53;26.40;;;0.60;99.90;;;;;;5110687;28;20024;-72
2022/02/27 07:24:39;;;;;;;41.80;24.45;;;0.70;99.90;;;;;;5100647;28;20035;-72
2022/02/27 07:27:04;;;;;;;36.50;20.83;;;0.80;99.90;;;;;;5099789;28;20032;-72
2022/02/27 07:29:31;;;;;;;37.83;21.33;;;0.90;99.90;;;;;;5094627;28;20110;-70
2022/02/27 07:31:56;;;;;;;35.67;18.83;;;1.00;99.90;;;;;;5094704;28;20020;-70
2022/02/27 07:34:22;;;;;;;41.35;19.88;;;1.20;99.90;;;;;;5094367;28;20053;-70
2022/02/27 07:36:51;;;;;;;36.97;21.10;;;1.20;99.90;;;;;;5096427;28;20032;-71
2022/02/27 07:39:16;;;;;;;37.38;19.33;;;1.30;99.90;;;;;;5111936;28;20043;-72
2022/02/27 07:41:42;;;;;;;37.55;19.20;;;1.40;99.90;;;;;;5114892;28;20027;-71
2022/02/27 07:44:07;;;;;;;32.40;18.08;;;1.50;99.90;;;;;;5114288;28;20023;-70
2022/02/27 07:46:33;;;;;;;31.55;18.10;;;1.60;99.90;;;;;;5114576;28;20026;-71
2022/02/27 07:48:58;;;;;;;30.33;18.08;;;1.80;99.90;;;;;;5114563;27;20043;-72
2022/02/27 07:51:25;;;;;;;25.83;15.70;;;1.90;99.90;;;;;;5108441;28;20035;-72
2022/02/27 07:53:50;;;;;;;36.30;17.55;;;2.00;99.90;;;;;;5110075;28;20102;-71
2022/02/27 07:56:16;;;;;;;29.45;15.32;;;2.20;99.90;;;;;;5103647;28;20092;-71
2022/02/27 07:58:42;;;;;;;26.67;14.13;;;2.30;99.90;;;;;;5104255;28;20028;-71
2022/02/27 08:01:07;;;;;;;25.63;13.35;;;2.50;99.90;;;;;;5103847;28;20027;-71
2022/02/27 08:03:33;;;;;;;26.27;14.88;;;2.60;99.90;;;;;;5107132;28;20027;-71
2022/02/27 08:05:59;;;;;;;24.77;13.20;;;2.70;97.80;;;;;;5101794;28;20027;-71
2022/02/27 08:08:24;;;;;;;25.10;13.57;;;2.80;96.70;;;;;;5093984;28;20377;-70
2022/02/27 08:10:50;;;;;;;25.60;10.40;;;2.90;94.80;;;;;;5092657;28;20032;-72
2022/02/27 08:13:15;;;;;;;23.75;12.05;;;3.00;91.80;;;;;;5094053;28;20024;-72
2022/02/27 08:15:41;;;;;;;16.63;8.27;;;3.00;89.30;;;;;;5104067;28;20019;-72
2022/02/27 08:18:07;;;;;;;9.77;6.88;;;3.10;86.30;;;;;;5103478;28;20024;-72
2022/02/27 08:20:34;;;;;;;13.25;7.00;;;3.10;82.90;;;;;;5103558;28;20013;-72
2022/02/27 08:22:59;;;;;;;13.80;7.18;;;3.10;83.10;;;;;;5100361;28;20085;-73
2022/02/27 08:25:25;;;;;;;11.82;6.47;;;3.10;81.80;;;;;;5093526;28;20476;-73
2022/02/27 08:27:50;;;;;;;10.50;7.22;;;3.10;81.80;;;;;;5093478;28;20485;-73
2022/02/27 08:30:16;;;;;;;14.13;6.50;;;3.20;82.10;;;;;;5092302;28;20032;-73
2022/02/27 08:32:41;;;;;;;10.35;7.05;;;3.20;79.40;;;;;;5093636;28;20029;-73
2022/02/27 08:35:08;;;;;;;9.20;6.18;;;3.30;80.30;;;;;;5092025;28;20024;-73
2022/02/27 08:37:33;;;;;;;7.18;5.28;;;3.30;78.30;;;;;;5105500;28;20034;-73
2022/02/27 08:39:59;;;;;;;9.10;4.63;;;3.30;78.80;;;;;;5097826;28;20023;-72
2022/02/27 08:42:30;;;;;;;10.93;5.90;;;3.30;76.40;;;;;;5102603;28;20028;-73
2022/02/27 08:44:55;;;;;;;11.00;5.60;;;3.50;78.50;;;;;;5091770;28;20031;-73
2022/02/27 08:47:21;;;;;;;10.65;5.13;;;3.50;75.60;;;;;;5093421;28;20035;-74
2022/02/27 08:49:47;;;;;;;7.35;5.63;;;3.60;76.50;;;;;;5092989;28;20218;-73
2022/02/27 08:52:13;;;;;;;9.38;5.15;;;3.80;77.30;;;;;;5112946;28;20047;-72
2022/02/27 08:54:39;;;;;;;8.20;4.72;;;3.90;75.70;;;;;;5110695;28;20047;-73
2022/02/27 08:57:05;;;;;;;10.02;5.60;;;3.90;73.00;;;;;;5113558;28;20019;-74
2022/02/27 08:59:31;;;;;;;13.13;6.13;;;3.90;72.20;;;;;;5113248;28;20366;-71
2022/02/27 09:01:56;;;;;;;12.15;8.68;;;4.10;75.00;;;;;;5110751;28;20031;-71
2022/02/27 09:04:22;;;;;;;11.57;7.45;;;4.20;77.60;;;;;;5112153;28;20023;-71
2022/02/27 09:06:48;;;;;;;12.55;7.20;;;4.20;76.50;;;;;;5112708;28;20149;-72
2022/02/27 09:09:15;;;;;;;11.68;6.55;;;4.20;75.90;;;;;;5112661;28;20043;-71
2022/02/27 09:11:42;;;;;;;10.07;5.93;;;4.20;72.90;;;;;;5111158;28;20089;-71
2022/02/27 09:14:07;;;;;;;8.93;5.07;;;4.30;70.00;;;;;;5112374;28;20511;-71
2022/02/27 09:16:33;;;;;;;11.82;6.57;;;4.30;68.60;;;;;;5111307;28;20020;-71
2022/02/27 09:18:58;;;;;;;15.48;8.50;;;4.30;67.50;;;;;;5111311;28;20016;-73
2022/02/27 09:21:24;;;;;;;9.50;6.22;;;4.40;67.80;;;;;;5113286;28;20027;-73
2022/02/27 09:23:49;;;;;;;6.95;4.10;;;4.60;67.60;;;;;;5111761;28;20035;-71
2022/02/27 09:26:15;;;;;;;6.38;3.75;;;4.60;63.90;;;;;;5113009;28;20020;-72
2022/02/27 09:28:41;;;;;;;3.03;2.53;;;4.70;64.20;;;;;;5110344;28;20020;-73
2022/02/27 09:31:06;;;;;;;8.07;4.95;;;4.50;59.30;;;;;;5101141;28;20032;-73
2022/02/27 09:33:32;;;;;;;7.40;4.40;;;4.40;62.30;;;;;;5093369;28;20020;-74
2022/02/27 09:35:58;;;;;;;5.68;2.90;;;4.50;62.40;;;;;;5092591;28;20481;-72
2022/02/27 09:38:23;;;;;;;3.78;2.45;;;4.60;60.10;;;;;;5092756;28;20031;-72
2022/02/27 09:40:52;;;;;;;5.05;3.30;;;4.80;59.00;;;;;;5092993;28;20408;-72
2022/02/27 09:43:21;;;;;;;3.05;2.28;;;4.80;58.10;;;;;;5112795;28;20035;-72
2022/02/27 09:45:47;;;;;;;3.20;2.30;;;4.80;57.20;;;;;;5112775;28;20469;-74
2022/02/27 09:48:13;;;;;;;4.97;2.55;;;4.70;56.70;;;;;;5111479;28;20028;-74
2022/02/27 09:50:40;;;;;;;7.07;3.55;;;4.80;56.80;;;;;;5113001;28;20054;-73
2022/02/27 09:53:09;;;;;;;3.25;2.90;;;4.80;57.70;;;;;;5112866;28;20041;-72
2022/02/27 09:55:38;;;;;;;3.90;1.98;;;4.70;57.20;;;;;;5112867;28;20020;-72
2022/02/27 09:58:04;;;;;;;3.20;2.08;;;4.70;54.00;;;;;;5112836;28;20055;-72
2022/02/27 10:00:30;;;;;;;2.05;1.83;;;4.60;50.20;;;;;;5113084;28;20020;-70
2022/02/27 10:03:07;;;;;;;2.85;1.55;;;4.40;50.20;;;;;;5112858;28;20740;-69
2022/02/27 10:05:34;;;;;;;1.80;1.45;;;4.50;52.00;;;;;;5111487;28;20032;-69
2022/02/27 10:08:01;;;;;;;3.25;2.35;;;4.60;50.80;;;;;;5112941;28;20012;-70
2022/02/27 10:10:28;;;;;;;5.93;2.05;;;4.80;51.00;;;;;;5114677;28;20072;-72
2022/02/27 10:12:54;;;;;;;1.00;0.90;;;5.10;53.40;;;;;;5115310;28;20038;-72
2022/02/27 10:15:19;;;;;;;1.48;1.17;;;4.90;49.30;;;;;;5116400;28;20027;-72
2022/02/27 10:17:49;;;;;;;2.63;1.95;;;4.80;48.60;;;;;;5116064;28;20020;-73
2022/02/27 10:20:16;;;;;;;1.95;1.02;;;5.00;50.60;;;;;;5116634;28;20016;-73
2022/02/27 10:22:44;;;;;;;1.88;1.60;;;4.90;48.80;;;;;;5116122;28;20035;-70
2022/02/27 10:25:21;;;;;;;1.77;1.30;;;4.80;48.70;;;;;;5114870;28;20119;-73
2022/02/27 10:27:49;;;;;;;1.63;1.52;;;4.50;48.20;;;;;;5116647;28;20085;-70
2022/02/27 10:30:36;;;;;;;3.55;2.50;;;4.40;48.60;;;;;;5116331;28;20036;-73
2022/02/27 10:33:05;;;;;;;1.50;1.40;;;4.30;49.50;;;;;;5116691;28;20462;-70
2022/02/27 10:35:35;;;;;;;3.63;1.48;;;4.10;49.70;;;;;;5114366;28;20020;-73
2022/02/27 10:38:01;;;;;;;1.58;1.35;;;4.20;49.90;;;;;;5113185;28;20027;-69
2022/02/27 10:40:35;;;;;;;3.00;1.17;;;4.20;50.20;;;;;;5113860;28;20433;-72
2022/02/27 10:43:09;;;;;;;3.78;1.90;;;4.10;49.70;;;;;;5113859;27;20019;-73
2022/02/27 10:45:35;;;;;;;2.60;1.90;;;4.20;50.00;;;;;;5108253;28;20521;-73
2022/02/27 10:48:26;;;;;;;4.10;2.08;;;4.30;50.50;;;;;;5106172;28;20098;-71
2022/02/27 10:51:02;;;;;;;3.08;2.35;;;4.30;50.80;;;;;;5095322;28;20085;-71
2022/02/27 10:53:36;;;;;;;2.50;2.30;;;4.40;50.80;;;;;;5103128;28;20024;-73
2022/02/27 10:56:06;;;;;;;6.95;3.13;;;4.60;50.40;;;;;;5102284;28;20022;-73
2022/02/27 10:59:02;;;;;;;4.95;2.78;;;4.60;47.50;;;;;;5111417;28;20041;-73
2022/02/27 11:01:29;;;;;;;1.88;1.70;;;4.70;48.60;;;;;;5098298;28;20039;-73
2022/02/27 11:03:56;;;;;;;4.78;2.25;;;4.60;47.30;;;;;;5113536;27;20099;-73
2022/02/27 11:06:22;;;;;;;6.50;3.47;;;4.70;49.20;;;;;;5113656;28;20157;-72
2022/02/27 11:08:49;;;;;;;5.80;2.88;;;4.70;49.20;;;;;;5113702;28;20032;-73
2022/02/27 11:11:15;;;;;;;5.53;3.40;;;4.80;49.20;;;;;;5114582;27;20044;-72
2022/02/27 11:13:44;;;;;;;3.38;2.65;;;4.70;49.40;;;;;;5114724;28;20090;-71
2022/02/27 11:16:11;;;;;;;2.88;2.28;;;4.80;48.50;;;;;;5114517;27;20032;-69
2022/02/27 11:18:39;;;;;;;5.95;2.97;;;4.90;48.00;;;;;;5113311;28;20016;-71
2022/02/27 11:21:04;;;;;;;5.32;2.60;;;5.20;47.70;;;;;;5113565;27;20469;-72
2022/02/27 11:23:31;;;;;;;3.63;2.53;;;5.40;47.20;;;;;;5114175;28;20102;-72
2022/02/27 11:26:00;;;;;;;3.20;1.70;;;5.20;46.70;;;;;;5113109;27;20089;-73
2022/02/27 11:28:26;;;;;;;12.73;6.03;;;5.00;45.60;;;;;;5095278;28;20531;-73
2022/02/27 11:30:59;;;;;;;5.45;1.88;;;5.00;46.40;;;;;;5092485;28;20105;-71
2022/02/27 11:33:25;;;;;;;;;;;5.00;46.80;;;;;;5091782;28;20470;-73
2022/02/27 11:35:59;;;;;;;20.88;10.55;;;4.90;46.20;;;;;;5091147;28;19910;-73
2022/02/27 11:38:30;;;;;;;41.28;19.80;;;4.90;45.90;;;;;;5095436;28;20510;-73
2022/02/27 11:40:57;;;;;;;3.85;1.98;;;4.80;46.20;;;;;;5114022;27;20055;-73
2022/02/27 11:43:55;;;;;;;6.25;2.30;;;4.70;45.00;;;;;;5112797;28;20045;-73
2022/02/27 11:46:42;;;;;;;69.82;33.92;;;4.70;46.20;;;;;;5110404;27;20134;-73
2022/02/27 11:49:10;;;;;;;11.10;6.22;;;4.70;48.00;;;;;;5093164;28;20050;-73
2022/02/27 11:51:36;;;;;;;10.00;5.25;;;4.50;52.50;;;;;;5096150;27;20121;-73
2022/02/27 11:54:06;;;;;;;55.03;28.10;;;4.30;53.70;;;;;;5091464;28;20066;-73
2022/02/27 11:56:31;;;;;;;19.65;11.40;;;4.40;54.00;;;;;;5104935;27;20034;-74
2022/02/27 11:58:57;;;;;;;11.38;6.95;;;4.40;54.40;;;;;;5102682;28;20036;-73
2022/02/27 12:01:48;;;;;;;17.63;10.40;;;4.40;55.50;;;;;;5109505;27;20096;-73
2022/02/27 12:04:20;;;;;;;15.88;10.23;;;4.40;54.20;;;;;;5098275;28;20032;-71
2022/02/27 12:07:03;;;;;;;28.05;13.70;;;4.50;53.50;;;;;;5101596;27;20084;-73
2022/02/27 12:09:48;;;;;;;19.50;8.85;;;4.50;51.70;;;;;;5098695;28;20043;-74
2022/02/27 12:12:34;;;;;;;8.60;5.45;;;4.50;50.40;;;;;;5111642;28;20489;-74
2022/02/27 12:15:28;;;;;;;36.22;17.33;;;4.50;50.30;;;;;;5101626;27;20012;-73
2022/02/27 12:18:05;;;;;;;27.52;11.45;;;4.50;49.00;;;;;;5086650;28;20074;-73
2022/02/27 12:20:37;;;;;;;6.28;2.90;;;4.60;49.40;;;;;;5105421;27;20042;-71
2022/02/27 12:23:06;;;;;;;24.92;13.32;;;4.60;48.70;;;;;;5111507;28;20392;-72
2022/02/27 12:25:37;;;;;;;5.28;3.35;;;4.50;48.80;;;;;;5113653;27;20043;-72
2022/02/27 12:28:03;;;;;;;8.13;4.80;;;4.40;49.20;;;;;;5112052;28;20483;-72
2022/02/27 12:30:29;;;;;;;10.65;7.00;;;4.40;51.70;;;;;;5113502;27;20036;-71
2022/02/27 12:33:06;;;;;;;10.52;6.60;;;4.40;52.50;;;;;;5112868;28;20050;-73
2022/02/27 12:35:39;;;;;;;10.55;6.43;;;4.50;52.80;;;;;;5113425;27;20584;-73